logo
Search for airport 
image banner adimage banner adimage banner ad
image banner ad

FAGRAS - Graskop

Located in , South Africa

ICAO - , IATA -

Data provided by Airmate  

General information

Coordinates: S24°57'21" E30°51'3"
Elevation is 4853 feet MSL.
 
View others Airports in Kwazulu-Natal

Operational data

Special qualification required
Current time UTC:
Current local time:
METAR: FAKN 171600Z AUTO 05005KT //// // ////// 17/06 Q1024
TAF: TAF FAKN 170900Z 1710/1718 VRB03KT CAVOK TX22/1712Z TN16/1718Z FM171200 04007KT CAVOK
View NOTAMs / SUP AIP / TFR affecting this airport [VIEW]
Communications frequencies: [VIEW]

Runways:

RWY identifierQFULength (ft)Width (ft)SurfaceLDA (ft)
01170°246166GRASS
19350°246166GRASS
0631°124766GRASS
24211°124766GRASS
12102°137866GRASS
30282°137866GRASS
15138°267433ASPH
33318°267433ASPH

Airport contact information

Address: South Africa

Satellite view of FAGRAS